Time;durP1;ratioP1;P1;durP2;ratioP2;P2;SDS_P1;SDS_P2;PMS_P1;PMS_P2;Temp;Humidity;BMP_temperature;BMP_pressure;BME280_temperature;BME280_humidity;BME280_pressure;Samples;Min_cycle;Max_cycle;Signal;HPM_P1;HPM_P2
2021/09/24 00:00:13;;;;;;;4.32;3.03;;;;;;;;;;4991137;28;20026;-64
2021/09/24 00:02:40;;;;;;;6.33;3.20;;;;;;;;;;4991785;28;20033;-64
2021/09/24 00:05:05;;;;;;;4.18;3.03;;;;;;;;;;4981686;28;20844;-64
2021/09/24 00:07:31;;;;;;;4.28;3.20;;;;;;;;;;4989038;28;20030;-66
2021/09/24 00:09:56;;;;;;;4.85;3.10;;;;;;;;;;4983418;28;20026;-65
2021/09/24 00:12:22;;;;;;;5.40;2.97;;;;;;;;;;4989367;28;20668;-64
2021/09/24 00:14:47;;;;;;;6.38;3.20;;;;;;;;;;4974821;28;20056;-65
2021/09/24 00:17:13;;;;;;;4.47;3.20;;;;;;;;;;4988129;28;20511;-64
2021/09/24 00:19:39;;;;;;;5.20;3.25;;;;;;;;;;4989792;28;20023;-64
2021/09/24 00:22:05;;;;;;;6.45;3.60;;;;;;;;;;4990775;28;20022;-65
2021/09/24 00:24:30;;;;;;;5.50;3.50;;;;;;;;;;4991031;28;20480;-63
2021/09/24 00:26:55;;;;;;;6.53;3.10;;;;;;;;;;4987200;28;20396;-64
2021/09/24 00:29:21;;;;;;;6.57;3.33;;;;;;;;;;4990897;28;20042;-65
2021/09/24 00:31:46;;;;;;;4.20;3.17;;;;;;;;;;4987041;28;20030;-66
2021/09/24 00:34:12;;;;;;;4.55;3.42;;;;;;;;;;4971538;28;20492;-64
2021/09/24 00:36:37;;;;;;;5.63;3.60;;;;;;;;;;4987940;28;20026;-63
2021/09/24 00:39:03;;;;;;;8.35;4.10;;;;;;;;;;4974296;28;20034;-65
2021/09/24 00:41:28;;;;;;;5.70;3.65;;;;;;;;;;4986241;28;20026;-67
2021/09/24 00:43:53;;;;;;;7.30;4.38;;;;;;;;;;4991094;28;20041;-64
2021/09/24 00:46:19;;;;;;;5.78;3.58;;;;;;;;;;4990016;28;20033;-64
2021/09/24 00:48:46;;;;;;;7.43;3.78;;;;;;;;;;4990840;28;20053;-66
2021/09/24 00:51:12;;;;;;;6.88;4.28;;;;;;;;;;4990909;28;20128;-65
2021/09/24 00:53:37;;;;;;;5.07;3.95;;;;;;;;;;4989266;28;20031;-65
2021/09/24 00:56:03;;;;;;;5.80;3.70;;;;;;;;;;4991052;28;20026;-65
2021/09/24 00:58:28;;;;;;;8.18;3.95;;;;;;;;;;4973516;28;20108;-64
2021/09/24 01:00:53;;;;;;;5.30;3.42;;;;;;;;;;4990163;28;20547;-65
2021/09/24 01:03:19;;;;;;;9.63;6.47;;;;;;;;;;4989907;28;20062;-63
2021/09/24 01:05:44;;;;;;;11.95;6.50;;;;;;;;;;4990279;28;20077;-65
2021/09/24 01:08:10;;;;;;;5.78;4.32;;;;;;;;;;4988972;28;20109;-64
2021/09/24 01:10:35;;;;;;;6.38;3.53;;;;;;;;;;4988848;28;20068;-65
2021/09/24 01:13:01;;;;;;;6.22;3.85;;;;;;;;;;4985275;28;20023;-66
2021/09/24 01:15:27;;;;;;;5.05;3.50;;;;;;;;;;4989812;28;20030;-65
2021/09/24 01:17:52;;;;;;;7.10;3.40;;;;;;;;;;4989822;28;20046;-64
2021/09/24 01:20:19;;;;;;;3.72;3.20;;;;;;;;;;4987793;28;20415;-64
2021/09/24 01:22:47;;;;;;;5.57;3.45;;;;;;;;;;4990585;28;20117;-65
2021/09/24 01:25:14;;;;;;;5.65;3.92;;;;;;;;;;4990698;28;20502;-63
2021/09/24 01:27:40;;;;;;;4.88;3.15;;;;;;;;;;4986464;28;20476;-64
2021/09/24 01:30:06;;;;;;;5.97;3.97;;;;;;;;;;4989822;28;20026;-66
2021/09/24 01:32:32;;;;;;;4.53;3.60;;;;;;;;;;4986839;28;20514;-64
2021/09/24 01:35:02;;;;;;;5.90;3.72;;;;;;;;;;4988390;28;20042;-65
2021/09/24 01:37:27;;;;;;;7.00;3.30;;;;;;;;;;4980634;28;20022;-65
2021/09/24 01:39:53;;;;;;;4.28;3.25;;;;;;;;;;4989281;28;20033;-64
2021/09/24 01:42:22;;;;;;;3.60;3.15;;;;;;;;;;4990173;28;20113;-64
2021/09/24 01:44:48;;;;;;;6.72;3.42;;;;;;;;;;4989664;28;20054;-68
2021/09/24 01:47:13;;;;;;;6.05;3.22;;;;;;;;;;4984855;28;20065;-67
2021/09/24 01:49:39;;;;;;;5.22;3.60;;;;;;;;;;4987484;28;20058;-65
2021/09/24 01:52:05;;;;;;;5.90;3.45;;;;;;;;;;4989433;28;20033;-64
2021/09/24 01:54:30;;;;;;;5.45;3.53;;;;;;;;;;4988774;28;20030;-64
2021/09/24 01:56:55;;;;;;;4.35;3.05;;;;;;;;;;4989357;28;20129;-66
2021/09/24 01:59:21;;;;;;;5.22;3.15;;;;;;;;;;4989535;28;20034;-64
2021/09/24 02:01:46;;;;;;;4.57;3.33;;;;;;;;;;4989946;28;20034;-66
2021/09/24 02:04:12;;;;;;;5.30;3.38;;;;;;;;;;4986990;28;20463;-65
2021/09/24 02:06:37;;;;;;;5.75;3.33;;;;;;;;;;4989740;28;20026;-65
2021/09/24 02:09:03;;;;;;;6.30;3.50;;;;;;;;;;4990077;28;20031;-65
2021/09/24 02:11:28;;;;;;;4.30;3.35;;;;;;;;;;4986346;28;20391;-67
2021/09/24 02:13:53;;;;;;;5.25;3.13;;;;;;;;;;4989110;28;20034;-64
2021/09/24 02:16:19;;;;;;;6.78;3.50;;;;;;;;;;4988233;28;20026;-65
2021/09/24 02:18:44;;;;;;;6.38;3.35;;;;;;;;;;4983208;28;20018;-64
2021/09/24 02:21:10;;;;;;;5.57;3.42;;;;;;;;;;4988147;28;20068;-65
2021/09/24 02:23:37;;;;;;;5.50;3.13;;;;;;;;;;4988677;28;20125;-65
2021/09/24 02:26:03;;;;;;;4.63;3.38;;;;;;;;;;4972689;28;20026;-64
2021/09/24 02:28:29;;;;;;;5.55;3.33;;;;;;;;;;4982164;28;20030;-68
2021/09/24 02:30:54;;;;;;;4.85;3.10;;;;;;;;;;4986759;28;20427;-65
2021/09/24 02:33:20;;;;;;;4.75;3.40;;;;;;;;;;4985979;28;20038;-65
2021/09/24 02:35:46;;;;;;;5.60;3.00;;;;;;;;;;4985897;28;20118;-66
2021/09/24 02:38:11;;;;;;;4.65;3.40;;;;;;;;;;4987965;28;20030;-65
2021/09/24 02:40:37;;;;;;;6.30;3.80;;;;;;;;;;4990855;28;20520;-65
2021/09/24 02:43:02;;;;;;;5.00;3.47;;;;;;;;;;4974180;28;20037;-65
2021/09/24 02:45:28;;;;;;;4.43;3.35;;;;;;;;;;4991454;28;20026;-65
2021/09/24 02:47:53;;;;;;;7.55;3.97;;;;;;;;;;4991964;28;20083;-63
2021/09/24 02:50:18;;;;;;;4.35;3.63;;;;;;;;;;4985565;28;20066;-65
2021/09/24 02:52:44;;;;;;;6.15;3.28;;;;;;;;;;4992000;28;20365;-65
2021/09/24 02:55:10;;;;;;;5.35;3.55;;;;;;;;;;4992920;28;20026;-68
2021/09/24 02:57:35;;;;;;;4.15;3.58;;;;;;;;;;4991713;28;20461;-64
2021/09/24 03:00:02;;;;;;;5.57;3.72;;;;;;;;;;4993079;28;20022;-64
2021/09/24 03:02:28;;;;;;;5.55;3.85;;;;;;;;;;4992102;28;20105;-64
2021/09/24 03:04:53;;;;;;;7.70;3.70;;;;;;;;;;4992348;28;20180;-64
2021/09/24 03:07:18;;;;;;;4.40;3.58;;;;;;;;;;4973588;28;20038;-64
2021/09/24 03:09:44;;;;;;;7.28;3.63;;;;;;;;;;4993038;28;20037;-65
2021/09/24 03:12:09;;;;;;;4.32;3.40;;;;;;;;;;4990977;28;20169;-65
2021/09/24 03:14:35;;;;;;;4.78;4.00;;;;;;;;;;4992376;28;20026;-64
2021/09/24 03:17:00;;;;;;;4.40;3.47;;;;;;;;;;4991835;28;20088;-65
2021/09/24 03:19:26;;;;;;;5.82;3.70;;;;;;;;;;4990367;28;20061;-66
2021/09/24 03:21:52;;;;;;;4.60;3.72;;;;;;;;;;4989498;28;20494;-68
2021/09/24 03:24:17;;;;;;;6.25;3.65;;;;;;;;;;4988227;28;20085;-64
2021/09/24 03:26:45;;;;;;;5.88;3.92;;;;;;;;;;4991037;28;20026;-65
2021/09/24 03:29:11;;;;;;;5.90;3.72;;;;;;;;;;4992657;28;20503;-67
2021/09/24 03:31:38;;;;;;;5.35;3.80;;;;;;;;;;4992063;28;20047;-66
2021/09/24 03:34:04;;;;;;;10.38;4.15;;;;;;;;;;4992679;28;20043;-64
2021/09/24 03:36:29;;;;;;;6.18;3.90;;;;;;;;;;4991153;28;20530;-64
2021/09/24 03:38:55;;;;;;;6.68;3.70;;;;;;;;;;4990924;28;20072;-66
2021/09/24 03:41:20;;;;;;;5.97;3.70;;;;;;;;;;4973763;28;20026;-65
2021/09/24 03:43:45;;;;;;;4.53;3.50;;;;;;;;;;4990622;28;20037;-67
2021/09/24 03:46:11;;;;;;;5.15;3.88;;;;;;;;;;4991874;28;20483;-66
2021/09/24 03:48:36;;;;;;;6.18;3.90;;;;;;;;;;4989579;28;20031;-65
2021/09/24 03:51:02;;;;;;;6.03;3.60;;;;;;;;;;4988519;28;20113;-66
2021/09/24 03:53:27;;;;;;;5.35;3.95;;;;;;;;;;4991668;28;20034;-65
2021/09/24 03:55:53;;;;;;;5.85;4.40;;;;;;;;;;4987734;28;20072;-66
2021/09/24 03:58:20;;;;;;;5.47;4.30;;;;;;;;;;4971765;28;20026;-66
2021/09/24 04:00:45;;;;;;;;;;;;;;;;;;4990963;28;20384;-65
2021/09/24 04:03:11;;;;;;;7.20;3.88;;;;;;;;;;4991667;28;19941;-64
2021/09/24 04:05:36;;;;;;;5.63;4.15;;;;;;;;;;4992184;28;20042;-64
2021/09/24 04:08:01;;;;;;;6.15;4.03;;;;;;;;;;4990766;28;20054;-65
2021/09/24 04:10:27;;;;;;;6.15;4.22;;;;;;;;;;4991327;28;20428;-64
2021/09/24 04:12:52;;;;;;;5.30;4.60;;;;;;;;;;4974697;28;20030;-65
2021/09/24 04:15:17;;;;;;;5.65;4.03;;;;;;;;;;4989670;28;20616;-66
2021/09/24 04:17:43;;;;;;;7.15;4.75;;;;;;;;;;4990967;28;20029;-63
2021/09/24 04:20:09;;;;;;;6.57;4.90;;;;;;;;;;4986170;28;20039;-64
2021/09/24 04:22:34;;;;;;;6.07;4.60;;;;;;;;;;4990178;28;20089;-66
2021/09/24 04:25:00;;;;;;;10.43;4.72;;;;;;;;;;4988949;28;20037;-64
2021/09/24 04:27:25;;;;;;;8.32;5.20;;;;;;;;;;4984282;28;20036;-65
2021/09/24 04:29:50;;;;;;;7.80;4.53;;;;;;;;;;4991779;28;20026;-63
2021/09/24 04:32:16;;;;;;;6.07;4.38;;;;;;;;;;4989732;28;20058;-65
2021/09/24 04:34:41;;;;;;;5.00;4.10;;;;;;;;;;4972832;28;20046;-64
2021/09/24 04:37:07;;;;;;;7.28;4.50;;;;;;;;;;4987930;28;20472;-65
2021/09/24 04:39:32;;;;;;;6.78;4.50;;;;;;;;;;4989958;28;20026;-64
2021/09/24 04:41:57;;;;;;;7.45;4.63;;;;;;;;;;4989814;28;20022;-65
2021/09/24 04:44:23;;;;;;;9.60;4.20;;;;;;;;;;4990644;28;20030;-64
2021/09/24 04:46:48;;;;;;;6.55;4.28;;;;;;;;;;4990088;28;20056;-64
2021/09/24 04:49:14;;;;;;;7.93;4.43;;;;;;;;;;4987629;28;20038;-66
2021/09/24 04:51:40;;;;;;;5.93;4.43;;;;;;;;;;4990544;28;20068;-65
2021/09/24 04:54:05;;;;;;;7.03;4.70;;;;;;;;;;4990065;28;20117;-64
2021/09/24 04:56:31;;;;;;;7.30;4.65;;;;;;;;;;4990317;28;20060;-66
2021/09/24 04:58:56;;;;;;;5.70;4.45;;;;;;;;;;4989232;28;20349;-67
2021/09/24 05:01:21;;;;;;;6.20;4.30;;;;;;;;;;4986848;28;20376;-65
2021/09/24 05:03:47;;;;;;;9.82;5.00;;;;;;;;;;4990793;28;20464;-65
2021/09/24 05:06:13;;;;;;;10.05;5.50;;;;;;;;;;4991330;28;20072;-65
2021/09/24 05:08:38;;;;;;;5.93;4.95;;;;;;;;;;4989418;28;20092;-63
2021/09/24 05:11:04;;;;;;;7.95;4.95;;;;;;;;;;4990903;28;20185;-66
2021/09/24 05:13:29;;;;;;;8.60;5.53;;;;;;;;;;4988973;28;20157;-65
2021/09/24 05:15:54;;;;;;;7.03;5.30;;;;;;;;;;4989360;28;20035;-64
2021/09/24 05:18:20;;;;;;;7.40;5.57;;;;;;;;;;4988477;28;20034;-65
2021/09/24 05:20:45;;;;;;;6.75;5.28;;;;;;;;;;4990370;28;20076;-64
2021/09/24 05:23:11;;;;;;;7.57;4.80;;;;;;;;;;4990671;28;20038;-66
2021/09/24 05:25:36;;;;;;;10.52;5.57;;;;;;;;;;4990311;28;20365;-68
2021/09/24 05:28:02;;;;;;;9.40;6.50;;;;;;;;;;4989630;28;20061;-65
2021/09/24 05:30:28;;;;;;;20.48;12.63;;;;;;;;;;4989234;28;20042;-67
2021/09/24 05:32:53;;;;;;;28.75;20.02;;;;;;;;;;4985936;28;20057;-66
2021/09/24 05:35:19;;;;;;;14.43;11.32;;;;;;;;;;4990480;28;20030;-64
2021/09/24 05:37:45;;;;;;;16.20;10.35;;;;;;;;;;4989578;28;20040;-66
2021/09/24 05:40:11;;;;;;;15.38;10.05;;;;;;;;;;4989293;28;20396;-65
2021/09/24 05:42:37;;;;;;;10.90;6.80;;;;;;;;;;4988360;28;20026;-65
2021/09/24 05:45:03;;;;;;;9.30;5.93;;;;;;;;;;4971970;28;20033;-67
2021/09/24 05:47:29;;;;;;;10.20;6.38;;;;;;;;;;4988354;28;20034;-66
2021/09/24 05:49:55;;;;;;;8.55;6.20;;;;;;;;;;4989403;28;20403;-65
2021/09/24 05:52:20;;;;;;;8.82;6.30;;;;;;;;;;4989882;28;20093;-66
2021/09/24 05:54:46;;;;;;;7.72;5.85;;;;;;;;;;4989849;28;20563;-66
2021/09/24 05:57:11;;;;;;;8.13;5.18;;;;;;;;;;4988340;28;20037;-64
2021/09/24 05:59:37;;;;;;;9.02;5.10;;;;;;;;;;4970103;28;20034;-65
2021/09/24 06:02:02;;;;;;;8.52;5.63;;;;;;;;;;4984377;28;20026;-65
2021/09/24 06:04:27;;;;;;;6.60;4.85;;;;;;;;;;4984459;28;20037;-67
2021/09/24 06:06:53;;;;;;;7.18;5.25;;;;;;;;;;4988447;28;20022;-65
2021/09/24 06:09:18;;;;;;;30.98;22.42;;;;;;;;;;4972829;28;20030;-67
2021/09/24 06:11:44;;;;;;;11.48;6.03;;;;;;;;;;4989578;28;20041;-68
2021/09/24 06:14:09;;;;;;;6.60;5.07;;;;;;;;;;4989818;28;20025;-64
2021/09/24 06:16:35;;;;;;;6.10;4.43;;;;;;;;;;4974058;28;20044;-65
2021/09/24 06:19:00;;;;;;;8.00;5.80;;;;;;;;;;4991487;28;20550;-65
2021/09/24 06:21:26;;;;;;;8.93;5.93;;;;;;;;;;4992481;28;20484;-70
2021/09/24 06:23:52;;;;;;;14.80;9.68;;;;;;;;;;4990045;28;20531;-68
2021/09/24 06:26:18;;;;;;;13.40;8.77;;;;;;;;;;4994155;28;20395;-68
2021/09/24 06:28:43;;;;;;;8.75;6.50;;;;;;;;;;4993883;28;20026;-63
2021/09/24 06:31:09;;;;;;;9.52;6.30;;;;;;;;;;4991009;28;20044;-68
2021/09/24 06:33:34;;;;;;;10.07;7.38;;;;;;;;;;4988276;28;20038;-68
2021/09/24 06:36:00;;;;;;;7.03;5.00;;;;;;;;;;4985428;28;20550;-67
2021/09/24 06:38:26;;;;;;;8.82;5.40;;;;;;;;;;4987325;28;20481;-66
2021/09/24 06:40:52;;;;;;;6.32;5.53;;;;;;;;;;4991666;28;20061;-66
2021/09/24 06:43:17;;;;;;;6.50;5.22;;;;;;;;;;4987640;28;20042;-64
2021/09/24 06:45:43;;;;;;;6.72;5.05;;;;;;;;;;4988194;28;20028;-66
2021/09/24 06:48:09;;;;;;;6.78;4.85;;;;;;;;;;4989501;28;20523;-68
2021/09/24 06:50:35;;;;;;;6.53;5.45;;;;;;;;;;4992588;28;20037;-65
2021/09/24 06:53:01;;;;;;;10.00;5.70;;;;;;;;;;4991440;28;20120;-67
2021/09/24 06:55:27;;;;;;;5.65;5.03;;;;;;;;;;4975957;28;20794;-69
2021/09/24 06:57:54;;;;;;;8.00;4.97;;;;;;;;;;4987478;28;20034;-66
2021/09/24 07:00:20;;;;;;;7.93;5.82;;;;;;;;;;4990179;28;20502;-67
2021/09/24 07:02:46;;;;;;;9.15;5.97;;;;;;;;;;4989040;28;20471;-64
2021/09/24 07:05:11;;;;;;;8.27;5.25;;;;;;;;;;4988716;28;20038;-67
2021/09/24 07:07:37;;;;;;;7.60;5.18;;;;;;;;;;4987769;28;20038;-66
2021/09/24 07:10:03;;;;;;;8.00;5.35;;;;;;;;;;4987033;28;20029;-63
2021/09/24 07:12:29;;;;;;;7.30;4.85;;;;;;;;;;4992438;28;20093;-67
2021/09/24 07:14:55;;;;;;;9.20;5.30;;;;;;;;;;4993407;28;20022;-66
2021/09/24 07:17:20;;;;;;;6.57;4.55;;;;;;;;;;4993044;28;20057;-66
2021/09/24 07:19:46;;;;;;;6.65;4.45;;;;;;;;;;4991926;28;20105;-65
2021/09/24 07:22:11;;;;;;;6.78;4.75;;;;;;;;;;4991095;28;20053;-64
2021/09/24 07:24:36;;;;;;;8.50;4.63;;;;;;;;;;4993070;28;20041;-68
2021/09/24 07:27:02;;;;;;;8.20;4.75;;;;;;;;;;4975174;28;20481;-66
2021/09/24 07:29:28;;;;;;;7.80;5.28;;;;;;;;;;4991765;28;20068;-64
2021/09/24 07:31:53;;;;;;;5.93;4.13;;;;;;;;;;4992184;28;20034;-66
2021/09/24 07:34:19;;;;;;;7.40;5.07;;;;;;;;;;4990382;28;20441;-69
2021/09/24 07:36:44;;;;;;;6.65;4.40;;;;;;;;;;4974580;28;20038;-65
2021/09/24 07:39:10;;;;;;;6.63;4.60;;;;;;;;;;4992605;28;20069;-67
2021/09/24 07:41:36;;;;;;;6.00;4.90;;;;;;;;;;4968280;28;20065;-67
2021/09/24 07:44:04;;;;;;;6.97;4.38;;;;;;;;;;4988941;28;20069;-67
2021/09/24 07:46:30;;;;;;;7.10;5.75;;;;;;;;;;4989665;28;20066;-64
2021/09/24 07:48:56;;;;;;;9.30;6.30;;;;;;;;;;4989634;28;20088;-64
2021/09/24 07:51:21;;;;;;;7.57;5.47;;;;;;;;;;4990320;28;20042;-66
2021/09/24 07:53:47;;;;;;;7.28;4.85;;;;;;;;;;4988212;28;20096;-66
2021/09/24 07:56:13;;;;;;;7.45;4.85;;;;;;;;;;4992563;28;20439;-66
2021/09/24 07:58:39;;;;;;;5.18;4.43;;;;;;;;;;4987954;28;20022;-65
2021/09/24 08:01:06;;;;;;;7.00;4.63;;;;;;;;;;4967767;28;20026;-67
2021/09/24 08:03:31;;;;;;;7.65;6.32;;;;;;;;;;4987773;28;21452;-66
2021/09/24 08:05:56;;;;;;;5.85;4.68;;;;;;;;;;4985954;28;20113;-67
2021/09/24 08:08:22;;;;;;;6.65;4.70;;;;;;;;;;4988823;28;20053;-66
2021/09/24 08:10:47;;;;;;;5.68;4.10;;;;;;;;;;4972855;28;20030;-67
2021/09/24 08:13:13;;;;;;;5.68;4.22;;;;;;;;;;4988644;28;20480;-68
2021/09/24 08:15:43;;;;;;;5.85;4.47;;;;;;;;;;4985093;28;20026;-65
2021/09/24 08:18:09;;;;;;;5.50;3.97;;;;;;;;;;4990482;28;20022;-67
2021/09/24 08:20:35;;;;;;;6.13;4.40;;;;;;;;;;4988829;28;20479;-65
2021/09/24 08:23:00;;;;;;;5.25;4.45;;;;;;;;;;4986311;28;20038;-68
2021/09/24 08:25:26;;;;;;;5.45;4.70;;;;;;;;;;4984020;28;20034;-66
2021/09/24 08:27:51;;;;;;;6.25;5.18;;;;;;;;;;4983241;28;20093;-65
2021/09/24 08:30:20;;;;;;;7.85;5.80;;;;;;;;;;4983981;28;20031;-67
2021/09/24 08:32:46;;;;;;;6.82;5.30;;;;;;;;;;4983059;28;20033;-68
2021/09/24 08:35:12;;;;;;;6.35;4.88;;;;;;;;;;4963030;28;20495;-66
2021/09/24 08:37:38;;;;;;;7.82;4.25;;;;;;;;;;4984894;28;20073;-67
2021/09/24 08:40:06;;;;;;;6.63;4.30;;;;;;;;;;4986340;28;20186;-65
2021/09/24 08:42:33;;;;;;;7.63;5.05;;;;;;;;;;4990747;28;20302;-67
2021/09/24 08:44:58;;;;;;;8.43;5.05;;;;;;;;;;4988800;28;20062;-66
2021/09/24 08:47:24;;;;;;;8.00;6.60;;;;;;;;;;4987921;28;20432;-67
2021/09/24 08:49:50;;;;;;;8.63;5.90;;;;;;;;;;4989238;28;20117;-66
2021/09/24 08:52:15;;;;;;;8.38;5.40;;;;;;;;;;4990160;28;20093;-65
2021/09/24 08:54:41;;;;;;;6.32;4.63;;;;;;;;;;4991710;28;20546;-67
2021/09/24 08:57:10;;;;;;;7.15;5.20;;;;;;;;;;4991098;28;20030;-64
2021/09/24 08:59:36;;;;;;;6.63;4.22;;;;;;;;;;4990751;28;20041;-67
2021/09/24 09:02:08;;;;;;;7.95;4.57;;;;;;;;;;4983122;28;20042;-66
2021/09/24 09:04:46;;;;;;;7.00;4.15;;;;;;;;;;4984253;28;20180;-65
2021/09/24 09:07:14;;;;;;;6.13;4.30;;;;;;;;;;4985764;28;20038;-68
2021/09/24 09:09:43;;;;;;;7.93;4.35;;;;;;;;;;4979130;28;20124;-67
2021/09/24 09:12:10;;;;;;;6.72;4.43;;;;;;;;;;4989309;28;20399;-66
2021/09/24 09:14:36;;;;;;;7.85;3.70;;;;;;;;;;4991598;28;20138;-64
2021/09/24 09:17:29;;;;;;;7.90;3.95;;;;;;;;;;4990167;28;20113;-66
2021/09/24 09:20:08;;;;;;;8.80;3.97;;;;;;;;;;4969225;28;20397;-64
2021/09/24 09:22:34;;;;;;;5.95;3.28;;;;;;;;;;4970064;28;20475;-68
2021/09/24 09:24:59;;;;;;;5.00;3.40;;;;;;;;;;4986790;28;20031;-68
2021/09/24 09:27:27;;;;;;;5.68;3.67;;;;;;;;;;4983419;28;20038;-68
2021/09/24 09:30:03;;;;;;;4.35;3.33;;;;;;;;;;4985837;28;20030;-67
2021/09/24 09:32:29;;;;;;;4.13;2.95;;;;;;;;;;4985194;28;20040;-66
2021/09/24 09:34:56;;;;;;;4.97;2.90;;;;;;;;;;4987527;28;20042;-67
2021/09/24 09:37:21;;;;;;;7.35;4.80;;;;;;;;;;4985452;28;20431;-66
2021/09/24 09:40:13;;;;;;;6.28;4.30;;;;;;;;;;4968539;28;20041;-67
2021/09/24 09:42:41;;;;;;;6.97;4.10;;;;;;;;;;4985880;28;20034;-66
2021/09/24 09:45:09;;;;;;;2.70;2.45;;;;;;;;;;4986870;28;20034;-67
2021/09/24 09:47:37;;;;;;;4.22;2.63;;;;;;;;;;4982482;28;20405;-68
2021/09/24 09:50:12;;;;;;;4.40;2.47;;;;;;;;;;4983079;28;20069;-67
2021/09/24 09:53:07;;;;;;;5.03;2.17;;;;;;;;;;4985672;28;20033;-67
2021/09/24 09:55:35;;;;;;;2.90;2.10;;;;;;;;;;4986631;28;20034;-68
2021/09/24 09:58:06;;;;;;;5.88;2.40;;;;;;;;;;4985762;28;20105;-69
2021/09/24 10:00:33;;;;;;;3.38;2.35;;;;;;;;;;4989026;28;20022;-67
2021/09/24 10:03:04;;;;;;;2.63;2.05;;;;;;;;;;4984364;28;20026;-67
2021/09/24 10:05:35;;;;;;;4.72;2.05;;;;;;;;;;4987130;28;20030;-67
2021/09/24 10:08:23;;;;;;;6.40;2.10;;;;;;;;;;4965283;28;20503;-67
2021/09/24 10:10:56;;;;;;;2.75;1.80;;;;;;;;;;4966039;28;20092;-66
2021/09/24 10:13:22;;;;;;;4.80;1.90;;;;;;;;;;4987435;28;20019;-67
2021/09/24 10:15:48;;;;;;;3.50;1.98;;;;;;;;;;4985556;28;20026;-65
2021/09/24 10:18:14;;;;;;;3.57;1.77;;;;;;;;;;4984489;28;20041;-64
2021/09/24 10:20:39;;;;;;;3.27;2.10;;;;;;;;;;4986696;28;20069;-70
2021/09/24 10:23:07;;;;;;;5.90;2.10;;;;;;;;;;4981894;28;20030;-67
2021/09/24 10:25:34;;;;;;;1.90;1.70;;;;;;;;;;4988666;28;20026;-67
2021/09/24 10:28:03;;;;;;;;;;;;;;;;;;4986871;28;20082;-68
2021/09/24 10:30:32;;;;;;;2.85;1.80;;;;;;;;;;4985958;28;20363;-65
2021/09/24 10:33:01;;;;;;;2.58;1.40;;;;;;;;;;4987786;28;20097;-67
2021/09/24 10:35:53;;;;;;;2.75;1.60;;;;;;;;;;4985577;28;20408;-66
2021/09/24 10:38:22;;;;;;;2.13;1.50;;;;;;;;;;4985643;28;20069;-66
2021/09/24 10:41:05;;;;;;;3.15;1.48;;;;;;;;;;4985841;28;20084;-64
2021/09/24 10:43:45;;;;;;;2.58;1.55;;;;;;;;;;4985141;28;20034;-65
2021/09/24 10:46:34;;;;;;;2.55;1.55;;;;;;;;;;4986273;28;20031;-67
2021/09/24 10:49:23;;;;;;;3.35;1.50;;;;;;;;;;4983632;28;20026;-67
2021/09/24 10:51:58;;;;;;;2.25;1.60;;;;;;;;;;4985637;28;20030;-67
2021/09/24 10:54:25;;;;;;;2.92;1.50;;;;;;;;;;4985043;28;20026;-66
2021/09/24 10:57:05;;;;;;;2.90;1.70;;;;;;;;;;4983297;28;20044;-66
2021/09/24 10:59:32;;;;;;;2.85;1.80;;;;;;;;;;4986059;28;20049;-64
2021/09/24 11:01:58;;;;;;;2.55;1.63;;;;;;;;;;4988901;28;20109;-66
2021/09/24 11:04:43;;;;;;;2.72;1.65;;;;;;;;;;4992286;28;20030;-64
2021/09/24 11:07:09;;;;;;;3.38;1.65;;;;;;;;;;4989679;28;20137;-66
2021/09/24 11:09:50;;;;;;;2.63;1.63;;;;;;;;;;4985192;28;20117;-65
2021/09/24 11:12:15;;;;;;;4.32;1.70;;;;;;;;;;4992915;28;20026;-63
2021/09/24 11:14:42;;;;;;;3.25;1.80;;;;;;;;;;4992029;28;20060;-65
2021/09/24 11:17:10;;;;;;;2.85;1.70;;;;;;;;;;4992399;28;20026;-67
2021/09/24 11:19:38;;;;;;;4.00;2.00;;;;;;;;;;4991333;28;20041;-64
2021/09/24 11:22:08;;;;;;;3.30;2.10;;;;;;;;;;4971619;28;20034;-64
2021/09/24 11:24:38;;;;;;;5.13;1.90;;;;;;;;;;4987979;28;20477;-66
2021/09/24 11:27:11;;;;;;;3.38;2.30;;;;;;;;;;4992505;28;20383;-66
2021/09/24 11:30:13;;;;;;;5.15;2.20;;;;;;;;;;4983162;28;20037;-65
2021/09/24 11:32:44;;;;;;;2.88;1.70;;;;;;;;;;4971972;28;20037;-66
2021/09/24 11:35:14;;;;;;;3.38;1.92;;;;;;;;;;4989367;28;20053;-66
2021/09/24 11:37:41;;;;;;;5.18;2.00;;;;;;;;;;4991080;28;20049;-65
2021/09/24 11:40:11;;;;;;;3.85;2.40;;;;;;;;;;4990349;28;20022;-64
2021/09/24 11:42:40;;;;;;;3.30;1.70;;;;;;;;;;4990505;28;20499;-66
2021/09/24 11:45:17;;;;;;;2.92;2.00;;;;;;;;;;4969322;28;20026;-69
2021/09/24 11:47:44;;;;;;;4.57;2.17;;;;;;;;;;4990824;28;20041;-65
2021/09/24 11:50:12;;;;;;;;;;;;;;;;;;4989255;28;20049;-63
2021/09/24 11:52:41;;;;;;;3.60;1.80;;;;;;;;;;4971406;28;20431;-64
2021/09/24 11:55:35;;;;;;;3.33;1.85;;;;;;;;;;4990855;28;20026;-65
2021/09/24 11:58:14;;;;;;;4.60;1.85;;;;;;;;;;4991305;28;20027;-65
2021/09/24 12:00:49;;;;;;;4.95;2.20;;;;;;;;;;4989458;28;20022;-67
2021/09/24 12:03:19;;;;;;;4.28;2.25;;;;;;;;;;4988752;28;20878;-64
2021/09/24 12:05:54;;;;;;;6.13;2.60;;;;;;;;;;4988889;28;20089;-65
2021/09/24 12:08:28;;;;;;;6.03;4.05;;;;;;;;;;4989949;28;20515;-68
2021/09/24 12:11:15;;;;;;;5.90;3.78;;;;;;;;;;4992055;28;20059;-66
2021/09/24 12:13:47;;;;;;;5.35;3.13;;;;;;;;;;4970792;28;20085;-63
2021/09/24 12:16:16;;;;;;;12.80;5.55;;;;;;;;;;4990372;28;20054;-65
2021/09/24 12:18:51;;;;;;;6.57;3.10;;;;;;;;;;4989129;28;20520;-66
2021/09/24 12:21:21;;;;;;;5.05;2.88;;;;;;;;;;4991026;28;20065;-65
2021/09/24 12:23:47;;;;;;;3.97;2.13;;;;;;;;;;4989887;28;20077;-67
2021/09/24 12:26:13;;;;;;;5.30;2.85;;;;;;;;;;4989497;28;20026;-63
2021/09/24 12:28:55;;;;;;;2.90;1.97;;;;;;;;;;4988191;28;20030;-68
2021/09/24 12:31:52;;;;;;;4.85;2.40;;;;;;;;;;4988645;28;20296;-67
2021/09/24 12:34:23;;;;;;;3.30;2.35;;;;;;;;;;4966468;28;20070;-64
2021/09/24 12:36:49;;;;;;;2.15;1.63;;;;;;;;;;4990714;28;20112;-67
2021/09/24 12:39:17;;;;;;;5.18;2.13;;;;;;;;;;4989214;28;20373;-67
2021/09/24 12:41:43;;;;;;;3.38;2.17;;;;;;;;;;4988213;28;20053;-63
2021/09/24 12:44:09;;;;;;;3.63;1.60;;;;;;;;;;4991647;28;20026;-67
2021/09/24 12:46:44;;;;;;;1.00;0.90;;;;;;;;;;4973859;28;20488;-63
2021/09/24 12:49:10;;;;;;;2.28;1.45;;;;;;;;;;4990004;28;20034;-67
2021/09/24 12:51:36;;;;;;;1.70;1.30;;;;;;;;;;4989767;28;20034;-68
2021/09/24 12:54:03;;;;;;;2.13;1.17;;;;;;;;;;4990159;28;20439;-65
2021/09/24 12:56:30;;;;;;;2.72;1.08;;;;;;;;;;4988523;28;20117;-66
2021/09/24 12:58:57;;;;;;;2.25;1.10;;;;;;;;;;4990339;28;20077;-63
2021/09/24 13:01:23;;;;;;;1.58;0.93;;;;;;;;;;4987949;28;20570;-68
2021/09/24 13:03:52;;;;;;;3.88;1.40;;;;;;;;;;4970292;28;20042;-68
2021/09/24 13:06:18;;;;;;;1.92;1.05;;;;;;;;;;4990380;28;20481;-64
2021/09/24 13:08:44;;;;;;;2.58;1.30;;;;;;;;;;4982119;28;20396;-67
2021/09/24 13:11:09;;;;;;;3.22;1.92;;;;;;;;;;4986306;28;20035;-67
2021/09/24 13:13:35;;;;;;;2.78;1.75;;;;;;;;;;4989848;28;20526;-64
2021/09/24 13:16:02;;;;;;;5.28;1.95;;;;;;;;;;4990202;28;20401;-68
2021/09/24 13:18:28;;;;;;;4.30;1.80;;;;;;;;;;4982758;28;20125;-63
2021/09/24 13:20:53;;;;;;;7.10;2.05;;;;;;;;;;4988368;28;20101;-67
2021/09/24 13:23:19;;;;;;;2.78;1.70;;;;;;;;;;4984877;28;20049;-67
2021/09/24 13:25:50;;;;;;;6.50;2.87;;;;;;;;;;4984269;28;20034;-67
2021/09/24 13:28:16;;;;;;;3.30;1.70;;;;;;;;;;4965249;28;20146;-68
2021/09/24 13:30:45;;;;;;;3.60;2.45;;;;;;;;;;4290483;28;10000826;-68
2021/09/24 13:33:13;;;;;;;2.50;1.75;;;;;;;;;;4967827;28;21874;-65
2021/09/24 13:35:39;;;;;;;4.65;2.60;;;;;;;;;;4971960;28;20710;-65
2021/09/24 13:38:05;;;;;;;3.20;1.80;;;;;;;;;;4971844;28;20635;-68
2021/09/24 13:40:32;;;;;;;4.05;1.50;;;;;;;;;;4976156;28;20042;-67
2021/09/24 13:42:58;;;;;;;3.17;1.60;;;;;;;;;;4970529;28;20039;-64
2021/09/24 13:45:23;;;;;;;4.72;2.47;;;;;;;;;;4979416;28;20507;-69
2021/09/24 13:47:49;;;;;;;4.55;1.63;;;;;;;;;;4979446;28;20036;-65
2021/09/24 13:50:14;;;;;;;3.15;2.35;;;;;;;;;;4974796;28;21973;-65
2021/09/24 13:52:40;;;;;;;3.47;1.90;;;;;;;;;;4969425;28;20035;-68
2021/09/24 13:55:06;;;;;;;9.15;2.30;;;;;;;;;;4953195;28;20027;-66
2021/09/24 13:57:31;;;;;;;5.47;1.77;;;;;;;;;;4976083;28;20037;-68
2021/09/24 13:59:59;;;;;;;4.82;2.65;;;;;;;;;;4970177;28;20030;-67
2021/09/24 14:02:25;;;;;;;4.22;1.80;;;;;;;;;;4976508;28;20045;-66
2021/09/24 14:04:50;;;;;;;3.97;1.92;;;;;;;;;;4975619;28;20486;-67
2021/09/24 14:07:16;;;;;;;6.45;2.05;;;;;;;;;;4978665;28;20675;-67
2021/09/24 14:09:41;;;;;;;5.05;1.70;;;;;;;;;;4974428;28;20038;-67
2021/09/24 14:12:07;;;;;;;2.92;2.00;;;;;;;;;;4970655;28;20030;-67
2021/09/24 14:14:33;;;;;;;4.32;1.83;;;;;;;;;;4978116;28;20034;-67
2021/09/24 14:16:58;;;;;;;5.50;1.90;;;;;;;;;;4977505;28;20114;-67
2021/09/24 14:19:24;;;;;;;3.90;1.70;;;;;;;;;;4973799;28;20030;-63
2021/09/24 14:21:50;;;;;;;2.70;1.70;;;;;;;;;;4960268;28;20431;-66
2021/09/24 14:24:16;;;;;;;2.90;1.80;;;;;;;;;;4975946;28;20031;-65
2021/09/24 14:26:41;;;;;;;4.63;1.90;;;;;;;;;;4976621;28;20728;-65
2021/09/24 14:29:07;;;;;;;2.63;1.60;;;;;;;;;;4972538;28;20045;-64
2021/09/24 14:31:32;;;;;;;3.15;1.65;;;;;;;;;;4971180;28;20041;-63
2021/09/24 14:33:57;;;;;;;4.30;1.88;;;;;;;;;;4973159;28;20070;-66
2021/09/24 14:36:24;;;;;;;2.65;1.70;;;;;;;;;;4965912;28;20026;-65
2021/09/24 14:38:49;;;;;;;5.68;1.98;;;;;;;;;;4985586;28;20042;-68
2021/09/24 14:41:15;;;;;;;3.78;1.75;;;;;;;;;;4982041;28;20484;-68
2021/09/24 14:43:40;;;;;;;6.00;2.08;;;;;;;;;;4973455;28;20066;-69